Pasadena Park, Missouri
Current Conditions -  °F | °C
As of 4:51 PM on Tuesday 25 Nov 2014 (Local Time) from KSTL Reporting Station
Few Clouds Few Clouds  
Wind Chill: 33°   Ceiling: Unl
Heat Index: 38°   Visibility: 10mi
Dew Point: 21°   Wind: 6mph
Humidity: 51%   Direction: 280°W
Pressure: 30.16"   Gusts: NA
Location:  38.7055°N, 90.3021°W
Report Text: KSTL 252251Z 28005KT 10SM FEW200 03/M06 A3016 RMK AO2 SLP223 T00331061
Loading
Personal Weather Stations






























Interactive Weather Map New forecast layout! Learn more

10-Day Weather Forecast

Advertisements
Track Severe Weather on mobile